createdAt,value
2022-09-23T00:01:05.472Z,101781.00
2022-09-23T00:03:33.300Z,101780.16
2022-09-23T00:06:01.329Z,101773.34
2022-09-23T00:08:28.746Z,101774.31
2022-09-23T00:10:55.820Z,101769.41
2022-09-23T00:13:24.841Z,101776.81
2022-09-23T00:15:51.725Z,101770.25
2022-09-23T00:18:20.468Z,101764.53
2022-09-23T00:20:47.265Z,101765.25
2022-09-23T00:23:13.949Z,101760.25
2022-09-23T00:25:40.448Z,101768.97
2022-09-23T00:28:06.945Z,101761.81
2022-09-23T00:30:33.664Z,101747.81
2022-09-23T00:33:00.228Z,101755.34
2022-09-23T00:35:26.836Z,101753.66
2022-09-23T00:37:53.379Z,101742.59
2022-09-23T00:40:19.969Z,101746.41
2022-09-23T00:42:49.170Z,101753.19
2022-09-23T00:45:16.116Z,101748.06
2022-09-23T00:48:01.649Z,101743.66
2022-09-23T00:50:37.646Z,101746.50
2022-09-23T00:53:07.977Z,101740.31
2022-09-23T00:55:39.084Z,101738.84
2022-09-23T00:58:09.664Z,101745.06
2022-09-23T01:00:36.210Z,101745.06
2022-09-23T01:03:05.091Z,101735.88
2022-09-23T01:05:33.494Z,101733.72
2022-09-23T01:08:02.682Z,101744.94
2022-09-23T01:10:56.893Z,101738.25
2022-09-23T01:13:29.412Z,101735.88
2022-09-23T01:16:08.345Z,101744.34
2022-09-23T01:18:43.479Z,101730.75
2022-09-23T01:21:31.527Z,101732.88
2022-09-23T01:24:14.944Z,101731.72
2022-09-23T01:26:56.727Z,101736.34
2022-09-23T01:30:05.541Z,101735.75
2022-09-23T01:33:11.129Z,101733.00
2022-09-23T01:36:22.004Z,101729.41
2022-09-23T01:39:07.929Z,101727.38
2022-09-23T01:41:47.130Z,101721.31
2022-09-23T01:44:24.221Z,101727.13
2022-09-23T01:46:56.641Z,101723.31
2022-09-23T01:49:32.453Z,101718.75
2022-09-23T01:52:16.141Z,101721.28
2022-09-23T01:54:50.609Z,101720.78
2022-09-23T01:57:29.401Z,101713.19
2022-09-23T02:00:04.302Z,101728.28
2022-09-23T02:02:49.205Z,101722.81
2022-09-23T02:05:27.356Z,101719.47
2022-09-23T02:08:05.868Z,101718.38
2022-09-23T02:10:35.968Z,101720.53
2022-09-23T02:13:08.616Z,101715.53
2022-09-23T02:15:46.481Z,101703.59
2022-09-23T02:18:20.376Z,101706.50
2022-09-23T02:20:48.948Z,101709.94
2022-09-23T02:23:21.135Z,101701.34
2022-09-23T02:25:50.529Z,101695.84
2022-09-23T02:28:39.623Z,101696.91
2022-09-23T02:31:19.810Z,101691.91
2022-09-23T02:33:53.024Z,101696.19
2022-09-23T02:36:32.996Z,101689.66
2022-09-23T02:39:05.900Z,101693.78
2022-09-23T02:41:37.739Z,101687.09
2022-09-23T02:44:07.561Z,101677.50
2022-09-23T02:46:35.177Z,101672.34
2022-09-23T02:49:20.179Z,101681.63
2022-09-23T02:51:47.019Z,101672.88
2022-09-23T02:54:18.193Z,101665.75
2022-09-23T02:56:44.836Z,101662.41
2022-09-23T02:59:12.478Z,101670.03
2022-09-23T03:02:04.973Z,101665.84
2022-09-23T03:05:03.729Z,101667.88
2022-09-23T03:08:03.869Z,101651.06
2022-09-23T03:10:42.673Z,101658.09
2022-09-23T03:13:29.466Z,101657.00
2022-09-23T03:16:24.674Z,101653.66
2022-09-23T03:19:15.277Z,101658.75
2022-09-23T03:21:49.260Z,101653.06
2022-09-23T03:24:18.256Z,101649.69
2022-09-23T03:26:47.879Z,101657.91
2022-09-23T03:29:16.773Z,101651.44
2022-09-23T03:31:44.755Z,101638.91
2022-09-23T03:34:20.280Z,101646.81
2022-09-23T03:37:11.227Z,101651.91
2022-09-23T03:39:44.293Z,101647.81
2022-09-23T03:42:30.960Z,101650.72
2022-09-23T03:44:58.344Z,101642.06
2022-09-23T03:47:26.817Z,101648.00
2022-09-23T03:49:54.264Z,101639.03
2022-09-23T03:52:23.539Z,101639.34
2022-09-23T03:54:51.973Z,101632.66
2022-09-23T03:57:21.947Z,101634.97
2022-09-23T03:59:52.361Z,101632.44
2022-09-23T04:02:20.546Z,101641.59
2022-09-23T04:04:47.211Z,101639.53
2022-09-23T04:07:14.668Z,101628.81
2022-09-23T04:09:41.385Z,101629.78
2022-09-23T04:12:11.704Z,101625.00
2022-09-23T04:14:38.228Z,101625.22
2022-09-23T04:17:04.736Z,101626.69
2022-09-23T04:19:31.209Z,101631.75
2022-09-23T04:21:57.721Z,101626.13
2022-09-23T04:24:24.467Z,101633.00
2022-09-23T04:26:53.315Z,101636.41
2022-09-23T04:29:20.732Z,101625.94
2022-09-23T04:31:47.945Z,101631.59
2022-09-23T04:34:15.879Z,101625.34
2022-09-23T04:36:42.862Z,101637.09
2022-09-23T04:39:09.336Z,101621.75
2022-09-23T04:41:36.023Z,101623.75
2022-09-23T04:44:03.082Z,101625.84
2022-09-23T04:46:30.009Z,101626.47
2022-09-23T04:48:56.844Z,101631.47
2022-09-23T04:51:25.396Z,101634.91
2022-09-23T04:53:53.741Z,101619.91
2022-09-23T04:56:23.492Z,101625.25
2022-09-23T04:58:50.747Z,101625.00
2022-09-23T05:01:26.759Z,101623.56
2022-09-23T05:03:57.761Z,101621.44
2022-09-23T05:06:25.042Z,101615.53
2022-09-23T05:08:56.143Z,101617.63
2022-09-23T05:11:23.741Z,101612.53
2022-09-23T05:13:52.884Z,101612.53
2022-09-23T05:16:20.706Z,101610.47
2022-09-23T05:18:49.053Z,101615.53
2022-09-23T05:21:23.979Z,101625.16
2022-09-23T05:23:55.455Z,101622.06
2022-09-23T05:26:25.224Z,101630.84
2022-09-23T05:28:52.379Z,101618.84
2022-09-23T05:31:22.222Z,101621.22
2022-09-23T05:33:51.975Z,101627.38
2022-09-23T05:36:20.503Z,101623.19
2022-09-23T05:38:49.213Z,101622.28
2022-09-23T05:41:16.437Z,101627.75
2022-09-23T05:43:43.289Z,101629.88
2022-09-23T05:46:12.735Z,101632.38
2022-09-23T05:48:40.777Z,101627.38
2022-09-23T05:51:12.725Z,101640.38
2022-09-23T05:53:44.822Z,101637.41
2022-09-23T05:56:16.974Z,101635.91
2022-09-23T05:58:44.101Z,101635.91
2022-09-23T06:01:17.964Z,101638.84
2022-09-23T06:03:48.931Z,101636.72
2022-09-23T06:06:18.042Z,101642.63
2022-09-23T06:08:46.032Z,101628.75
2022-09-23T06:11:13.605Z,101639.44
2022-09-23T06:13:41.098Z,101626.00
2022-09-23T06:16:12.842Z,101633.97
2022-09-23T06:18:40.194Z,101634.97
2022-09-23T06:21:07.764Z,101626.59
2022-09-23T06:23:37.516Z,101619.22
2022-09-23T06:26:08.757Z,101628.28
2022-09-23T06:28:37.826Z,101630.19
2022-09-23T06:31:12.953Z,101627.81
2022-09-23T06:33:40.267Z,101618.84
2022-09-23T06:36:07.765Z,101612.31
2022-09-23T06:38:35.028Z,101609.72
2022-09-23T06:41:03.066Z,101618.34
2022-09-23T06:43:30.060Z,101612.88
2022-09-23T06:45:58.440Z,101617.03
2022-09-23T06:48:26.201Z,101615.97
2022-09-23T06:50:53.801Z,101620.44
2022-09-23T06:53:23.593Z,101624.41
2022-09-23T06:56:05.500Z,101635.03
2022-09-23T06:58:33.491Z,101624.63
2022-09-23T07:01:05.043Z,101628.34
2022-09-23T07:03:34.316Z,101626.09
2022-09-23T07:06:01.155Z,101613.84
2022-09-23T07:08:29.318Z,101616.03
2022-09-23T07:10:58.205Z,101617.03
2022-09-23T07:13:25.697Z,101618.41
2022-09-23T07:15:53.689Z,101622.88
2022-09-23T07:18:23.739Z,101617.63
2022-09-23T07:20:50.749Z,101609.72
2022-09-23T07:23:17.823Z,101610.09
2022-09-23T07:25:50.223Z,101614.06
2022-09-23T07:28:17.103Z,101613.13
2022-09-23T07:30:56.159Z,101617.38
2022-09-23T07:33:32.329Z,101619.69
2022-09-23T07:35:59.450Z,101613.38
2022-09-23T07:38:29.803Z,101620.06
2022-09-23T07:41:08.812Z,101622.91
2022-09-23T07:43:35.658Z,101626.13
2022-09-23T07:46:06.955Z,101621.72
2022-09-23T07:48:34.848Z,101614.13
2022-09-23T07:51:08.099Z,101611.53
2022-09-23T07:53:34.720Z,101616.44
2022-09-23T07:56:01.540Z,101614.69
2022-09-23T07:58:28.075Z,101617.16
2022-09-23T08:00:54.562Z,101621.50
2022-09-23T08:03:21.290Z,101629.00
2022-09-23T08:05:48.118Z,101635.69
2022-09-23T08:08:14.777Z,101625.31
2022-09-23T08:10:41.287Z,101620.47
2022-09-23T08:13:07.780Z,101634.56
2022-09-23T08:15:34.372Z,101625.88
2022-09-23T08:18:01.471Z,101624.81
2022-09-23T08:20:47.757Z,101626.00
2022-09-23T08:23:16.143Z,101628.53
2022-09-23T08:25:46.857Z,101630.19
2022-09-23T08:28:16.682Z,101634.47
2022-09-23T08:30:44.429Z,101627.72
2022-09-23T08:33:14.144Z,101627.00
2022-09-23T08:35:41.044Z,101621.97
2022-09-23T08:38:08.184Z,101622.84
2022-09-23T08:40:38.980Z,101626.78
2022-09-23T08:43:29.901Z,101632.88
2022-09-23T08:46:02.505Z,101628.00
2022-09-23T08:48:49.523Z,101633.34
2022-09-23T08:51:23.636Z,101630.16
2022-09-23T08:53:50.314Z,101628.34
2022-09-23T08:56:23.229Z,101625.97
2022-09-23T08:59:14.714Z,101628.50
2022-09-23T09:01:45.202Z,101628.97
2022-09-23T09:04:17.732Z,101615.97
2022-09-23T09:06:53.099Z,101610.00
2022-09-23T09:09:25.336Z,101621.19
2022-09-23T09:11:58.836Z,101622.66
2022-09-23T09:14:45.968Z,101614.28
2022-09-23T09:17:38.287Z,101617.22
2022-09-23T09:20:24.575Z,101615.44
2022-09-23T09:22:53.159Z,101622.25
2022-09-23T09:25:23.975Z,101612.31
2022-09-23T09:27:52.045Z,101614.94
2022-09-23T09:30:19.493Z,101611.59
2022-09-23T09:32:51.920Z,101607.53
2022-09-23T09:35:27.264Z,101614.63
2022-09-23T09:37:53.796Z,101602.28
2022-09-23T09:40:20.757Z,101598.53
2022-09-23T09:42:49.561Z,101598.16
2022-09-23T09:45:24.186Z,101604.81
2022-09-23T09:48:00.355Z,101603.34
2022-09-23T09:50:47.176Z,101599.44
2022-09-23T09:53:23.765Z,101605.59
2022-09-23T09:56:04.396Z,101593.63
2022-09-23T09:58:41.539Z,101595.03
2022-09-23T10:01:08.355Z,101589.56
2022-09-23T10:03:41.375Z,101591.72
2022-09-23T10:06:24.312Z,101585.25
2022-09-23T10:09:18.955Z,101586.97
2022-09-23T10:12:15.383Z,101582.88
2022-09-23T10:14:42.750Z,101580.22
2022-09-23T10:17:17.687Z,101578.41
2022-09-23T10:19:47.438Z,101577.38
2022-09-23T10:22:29.828Z,101577.06
2022-09-23T10:25:01.430Z,101574.31
2022-09-23T10:27:34.501Z,101578.38
2022-09-23T10:30:21.495Z,101576.63
2022-09-23T10:32:48.895Z,101571.34
2022-09-23T10:35:22.416Z,101573.16
2022-09-23T10:37:54.127Z,101566.56
2022-09-23T10:40:39.381Z,101565.13
2022-09-23T10:43:43.414Z,101575.47
2022-09-23T10:46:45.844Z,101574.19
2022-09-23T10:49:33.037Z,101569.88
2022-09-23T10:52:15.949Z,101575.38
2022-09-23T10:55:01.403Z,101568.53
2022-09-23T10:57:46.438Z,101568.66
2022-09-23T11:00:23.004Z,101563.25
2022-09-23T11:03:34.265Z,101564.03
2022-09-23T11:06:06.472Z,101557.50
2022-09-23T11:08:54.256Z,101561.78
2022-09-23T11:11:58.532Z,101558.50
2022-09-23T11:14:51.452Z,101563.53
2022-09-23T11:17:51.054Z,101558.56
2022-09-23T11:20:41.261Z,101559.81
2022-09-23T11:23:40.574Z,101558.41
2022-09-23T11:26:33.250Z,101552.69
2022-09-23T11:29:25.259Z,101545.81
2022-09-23T11:32:09.173Z,101545.38
2022-09-23T11:35:15.080Z,101540.13
2022-09-23T11:37:52.842Z,101544.03
2022-09-23T11:40:24.128Z,101543.53
2022-09-23T11:42:59.711Z,101541.38
2022-09-23T11:45:34.466Z,101539.50
2022-09-23T11:48:09.627Z,101537.03
2022-09-23T11:50:49.964Z,101539.81
2022-09-23T11:53:31.393Z,101532.13
2022-09-23T11:56:07.280Z,101520.94
2022-09-23T11:58:55.842Z,101529.47
2022-09-23T12:01:38.062Z,101524.53
2022-09-23T12:04:24.104Z,101527.63
2022-09-23T12:06:57.828Z,101533.94
2022-09-23T12:09:57.162Z,101522.41
2022-09-23T12:12:31.510Z,101519.94
2022-09-23T12:15:19.944Z,101518.00
2022-09-23T12:18:06.363Z,101519.69
2022-09-23T12:20:53.713Z,101519.19
2022-09-23T12:23:57.635Z,101518.66
2022-09-23T12:26:25.402Z,101517.28
2022-09-23T12:28:58.854Z,101518.66
2022-09-23T12:31:30.543Z,101516.78
2022-09-23T12:33:59.028Z,101516.19
2022-09-23T12:36:35.941Z,101510.97
2022-09-23T12:39:14.944Z,101509.88
2022-09-23T12:41:43.675Z,101496.03
2022-09-23T12:44:28.806Z,101507.69
2022-09-23T12:47:29.913Z,101506.56
2022-09-23T12:49:56.612Z,101491.94
2022-09-23T12:52:33.331Z,101514.06
2022-09-23T12:55:35.323Z,101503.84
2022-09-23T12:58:01.663Z,101507.16
2022-09-23T13:00:33.517Z,101498.63
2022-09-23T13:03:19.879Z,101497.25
2022-09-23T13:06:09.858Z,101505.00
2022-09-23T13:08:41.600Z,101508.00
2022-09-23T13:11:26.135Z,101507.75
2022-09-23T13:13:56.853Z,101504.72
2022-09-23T13:16:32.329Z,101503.31
2022-09-23T13:19:05.390Z,101506.13
2022-09-23T13:21:44.753Z,101500.00
2022-09-23T13:24:23.171Z,101487.88
2022-09-23T13:26:51.137Z,101487.31
2022-09-23T13:29:27.012Z,101483.19
2022-09-23T13:31:57.789Z,101481.53
2022-09-23T13:34:28.811Z,101472.41
2022-09-23T13:36:55.301Z,101482.06
2022-09-23T13:39:26.673Z,101481.25
2022-09-23T13:41:56.361Z,101480.69
2022-09-23T13:44:23.573Z,101483.44
2022-09-23T13:46:58.066Z,101481.78
2022-09-23T13:49:32.387Z,101483.44
2022-09-23T13:51:59.653Z,101471.00
2022-09-23T13:54:31.985Z,101473.50
2022-09-23T13:56:58.865Z,101472.09
2022-09-23T13:59:38.084Z,101472.94
2022-09-23T14:02:16.817Z,101469.06
2022-09-23T14:04:44.365Z,101466.84
2022-09-23T14:07:13.277Z,101466.34
2022-09-23T14:09:45.446Z,101460.50
2022-09-23T14:12:12.261Z,101457.22
2022-09-23T14:14:41.102Z,101450.56
2022-09-23T14:17:10.265Z,101463.56
2022-09-23T14:19:37.174Z,101453.88
2022-09-23T14:22:03.670Z,101444.22
2022-09-23T14:24:30.103Z,101441.47
2022-09-23T14:27:01.452Z,101439.25
2022-09-23T14:29:33.985Z,101443.94
2022-09-23T14:32:06.518Z,101438.44
2022-09-23T14:34:57.595Z,101444.78
2022-09-23T14:37:48.842Z,101443.97
2022-09-23T14:40:22.396Z,101442.84
2022-09-23T14:42:56.852Z,101435.38
2022-09-23T14:45:30.476Z,101434.84
2022-09-23T14:48:00.879Z,101433.72
2022-09-23T14:50:46.975Z,101435.38
2022-09-23T14:53:22.740Z,101437.59
2022-09-23T14:55:57.224Z,101430.94
2022-09-23T14:58:30.335Z,101428.75
2022-09-23T15:01:01.302Z,101425.44
2022-09-23T15:03:28.691Z,101426.00
2022-09-23T15:06:09.026Z,101429.28
2022-09-23T15:08:35.872Z,101410.53
2022-09-23T15:11:08.071Z,101421.00
2022-09-23T15:13:40.270Z,101413.81
2022-09-23T15:16:08.190Z,101408.03
2022-09-23T15:18:36.857Z,101408.84
2022-09-23T15:21:19.273Z,101407.19
2022-09-23T15:23:51.548Z,101403.88
2022-09-23T15:26:20.191Z,101407.75
2022-09-23T15:28:47.806Z,101397.78
2022-09-23T15:31:19.340Z,101395.31
2022-09-23T15:33:49.647Z,101404.44
2022-09-23T15:36:25.822Z,101400.03
2022-09-23T15:38:52.963Z,101411.34
2022-09-23T15:41:19.443Z,101407.75
2022-09-23T15:43:46.901Z,101410.50
2022-09-23T15:46:24.634Z,101412.72
2022-09-23T15:48:59.054Z,101412.44
2022-09-23T15:51:27.328Z,101411.63
2022-09-23T15:53:55.177Z,101408.03
2022-09-23T15:56:22.694Z,101413.00
2022-09-23T15:58:49.523Z,101409.97
2022-09-23T16:01:43.226Z,101412.44
2022-09-23T16:04:11.717Z,101403.03
2022-09-23T16:06:39.565Z,101404.44
2022-09-23T16:09:06.111Z,101398.63
2022-09-23T16:11:32.769Z,101402.78
2022-09-23T16:14:00.597Z,101404.41
2022-09-23T16:16:27.995Z,101403.88
2022-09-23T16:18:54.720Z,101404.97
2022-09-23T16:21:24.813Z,101404.41
2022-09-23T16:23:53.352Z,101401.91
2022-09-23T16:26:29.529Z,101393.34
2022-09-23T16:28:58.043Z,101402.19
2022-09-23T16:31:25.764Z,101398.63
2022-09-23T16:33:53.449Z,101388.94
2022-09-23T16:36:33.348Z,101393.63
2022-09-23T16:39:02.713Z,101388.38
2022-09-23T16:41:31.465Z,101382.31
2022-09-23T16:44:00.486Z,101386.16
2022-09-23T16:46:27.752Z,101387.28
2022-09-23T16:48:55.529Z,101377.88
2022-09-23T16:51:26.358Z,101388.09
2022-09-23T16:53:54.195Z,101380.34
2022-09-23T16:56:27.441Z,101382.28
2022-09-23T16:58:54.934Z,101382.84
2022-09-23T17:01:42.866Z,101381.75
2022-09-23T17:04:10.553Z,101385.06
2022-09-23T17:06:52.224Z,101392.50
2022-09-23T17:09:23.280Z,101386.41
2022-09-23T17:11:59.206Z,101393.31
2022-09-23T17:14:25.873Z,101396.09
2022-09-23T17:16:52.344Z,101393.31
2022-09-23T17:19:18.845Z,101399.41
2022-09-23T17:21:45.321Z,101388.34
2022-09-23T17:24:11.824Z,101390.25
2022-09-23T17:26:38.286Z,101390.56
2022-09-23T17:29:05.587Z,101392.19
2022-09-23T17:31:32.323Z,101385.28
2022-09-23T17:33:59.013Z,101385.56
2022-09-23T17:36:25.521Z,101388.03
2022-09-23T17:38:55.375Z,101390.78
2022-09-23T17:41:22.009Z,101384.66
2022-09-23T17:43:54.561Z,101395.47
2022-09-23T17:46:21.151Z,101385.28
2022-09-23T17:48:47.688Z,101392.72
2022-09-23T17:51:19.725Z,101391.63
2022-09-23T17:53:47.756Z,101392.69
2022-09-23T17:56:18.324Z,101385.00
2022-09-23T17:58:46.104Z,101387.19
2022-09-23T18:01:15.828Z,101384.38
2022-09-23T18:03:45.447Z,101388.53
2022-09-23T18:06:14.733Z,101394.06
2022-09-23T18:08:42.968Z,101393.75
2022-09-23T18:11:25.415Z,101391.81
2022-09-23T18:13:57.480Z,101395.69
2022-09-23T18:16:27.272Z,101393.19
2022-09-23T18:18:57.132Z,101392.66
2022-09-23T18:21:26.100Z,101385.50
2022-09-23T18:23:52.589Z,101385.50
2022-09-23T18:26:21.433Z,101393.19
2022-09-23T18:28:49.009Z,101389.06
2022-09-23T18:31:16.320Z,101390.97
2022-09-23T18:33:42.840Z,101391.81
2022-09-23T18:36:10.109Z,101398.44
2022-09-23T18:38:36.597Z,101392.38
2022-09-23T18:41:03.196Z,101401.16
2022-09-23T18:43:37.461Z,101408.53
2022-09-23T18:46:09.495Z,101409.13
2022-09-23T18:48:54.573Z,101411.88
2022-09-23T18:51:25.361Z,101410.16
2022-09-23T18:53:57.415Z,101404.34
2022-09-23T18:56:30.944Z,101405.16
2022-09-23T18:58:57.523Z,101410.34
2022-09-23T19:01:24.593Z,101402.41
2022-09-23T19:03:56.050Z,101407.63
2022-09-23T19:06:23.296Z,101415.56
2022-09-23T19:08:52.289Z,101410.00
2022-09-23T19:11:19.501Z,101415.19
2022-09-23T19:13:46.340Z,101406.06
2022-09-23T19:16:16.558Z,101408.03
2022-09-23T19:18:46.267Z,101411.09
2022-09-23T19:21:14.105Z,101404.13
2022-09-23T19:23:47.543Z,101406.66
2022-09-23T19:26:16.791Z,101399.75
2022-09-23T19:28:53.892Z,101398.97
2022-09-23T19:31:29.883Z,101405.91
2022-09-23T19:33:58.203Z,101406.47
2022-09-23T19:36:33.125Z,101405.91
2022-09-23T19:39:03.024Z,101401.19
2022-09-23T19:41:35.239Z,101403.16
2022-09-23T19:44:03.040Z,101403.69
2022-09-23T19:46:37.819Z,101403.44
2022-09-23T19:49:06.483Z,101398.72
2022-09-23T19:51:34.551Z,101404.50
2022-09-23T19:54:02.249Z,101388.44
2022-09-23T19:56:29.845Z,101400.34
2022-09-23T19:58:57.509Z,101395.91
2022-09-23T20:01:26.196Z,101394.00
2022-09-23T20:03:53.289Z,101398.97
2022-09-23T20:06:20.292Z,101387.59
2022-09-23T20:08:47.810Z,101379.88
2022-09-23T20:11:16.911Z,101390.66
2022-09-23T20:13:47.028Z,101386.25
2022-09-23T20:16:15.561Z,101384.59
2022-09-23T20:18:42.871Z,101386.25
2022-09-23T20:21:11.738Z,101386.53
2022-09-23T20:23:38.353Z,101382.91
2022-09-23T20:26:24.375Z,101373.47
2022-09-23T20:28:51.165Z,101370.78
2022-09-23T20:31:20.694Z,101372.09
2022-09-23T20:33:58.192Z,101371.84
2022-09-23T20:36:26.064Z,101369.03
2022-09-23T20:38:54.192Z,101367.97
2022-09-23T20:41:21.114Z,101366.28
2022-09-23T20:43:48.198Z,101371.13
2022-09-23T20:46:17.546Z,101365.03
2022-09-23T20:48:46.467Z,101368.66
2022-09-23T20:51:12.937Z,101354.03
2022-09-23T20:53:39.433Z,101356.88
2022-09-23T20:56:06.182Z,101346.25
2022-09-23T20:58:36.501Z,101351.22
2022-09-23T21:01:11.010Z,101355.06
2022-09-23T21:03:42.174Z,101357.25
2022-09-23T21:06:09.666Z,101355.84
2022-09-23T21:08:37.501Z,101356.75
2022-09-23T21:11:06.752Z,101345.31
2022-09-23T21:13:34.133Z,101347.53
2022-09-23T21:16:05.283Z,101356.94
2022-09-23T21:18:32.195Z,101349.50
2022-09-23T21:20:59.760Z,101352.81
2022-09-23T21:23:27.911Z,101356.09
2022-09-23T21:26:20.124Z,101351.66
2022-09-23T21:28:49.404Z,101346.41
2022-09-23T21:31:25.855Z,101355.50
2022-09-23T21:33:56.499Z,101352.94
2022-09-23T21:36:24.504Z,101348.97
2022-09-23T21:38:51.993Z,101347.44
2022-09-23T21:41:19.154Z,101349.69
2022-09-23T21:43:45.692Z,101350.19
2022-09-23T21:46:14.522Z,101356.47
2022-09-23T21:48:42.237Z,101348.25
2022-09-23T21:51:14.355Z,101354.84
2022-09-23T21:53:42.026Z,101349.28
2022-09-23T21:56:20.739Z,101356.69
2022-09-23T21:58:48.385Z,101350.06
2022-09-23T22:01:26.413Z,101357.34
2022-09-23T22:03:58.397Z,101361.00
2022-09-23T22:06:30.467Z,101361.28
2022-09-23T22:08:59.691Z,101355.00
2022-09-23T22:11:51.526Z,101346.91
2022-09-23T22:14:19.667Z,101348.06
2022-09-23T22:16:46.377Z,101352.34
2022-09-23T22:19:14.950Z,101355.06
2022-09-23T22:21:43.882Z,101342.78
2022-09-23T22:24:11.685Z,101351.81
2022-09-23T22:26:40.481Z,101353.81
2022-09-23T22:29:27.967Z,101352.91
2022-09-23T22:32:13.212Z,101350.28
2022-09-23T22:34:53.197Z,101346.75
2022-09-23T22:37:28.405Z,101350.00
2022-09-23T22:39:55.205Z,101347.31
2022-09-23T22:42:22.322Z,101344.56
2022-09-23T22:44:49.373Z,101342.34
2022-09-23T22:47:17.525Z,101333.03
2022-09-23T22:49:44.056Z,101335.16
2022-09-23T22:52:11.188Z,101331.09
2022-09-23T22:54:38.420Z,101332.25
2022-09-23T22:57:06.521Z,101334.38
2022-09-23T22:59:33.160Z,101331.38
2022-09-23T23:02:00.169Z,101326.19
2022-09-23T23:04:27.485Z,101323.06
2022-09-23T23:06:53.968Z,101326.38
2022-09-23T23:09:20.448Z,101321.72
2022-09-23T23:11:47.348Z,101330.25
2022-09-23T23:14:16.590Z,101324.22
2022-09-23T23:16:45.123Z,101314.03
2022-09-23T23:19:13.964Z,101316.72
2022-09-23T23:21:43.367Z,101315.91
2022-09-23T23:24:21.800Z,101316.44
2022-09-23T23:26:49.098Z,101317.72
2022-09-23T23:29:17.317Z,101315.34
2022-09-23T23:31:44.044Z,101304.28
2022-09-23T23:34:13.232Z,101315.28
2022-09-23T23:36:41.433Z,101303.06
2022-09-23T23:39:08.356Z,101304.81
2022-09-23T23:41:34.910Z,101295.94
2022-09-23T23:44:01.747Z,101295.03
2022-09-23T23:46:30.626Z,101293.38
2022-09-23T23:48:57.902Z,101287.38
2022-09-23T23:51:26.345Z,101281.63
2022-09-23T23:53:53.913Z,101293.06
2022-09-23T23:56:25.033Z,101288.56
2022-09-23T23:58:56.850Z,101295.63
